Time;durP1;ratioP1;P1;durP2;ratioP2;P2;SDS_P1;SDS_P2;PMS_P1;PMS_P2;Temp;Humidity;BMP_temperature;BMP_pressure;BME280_temperature;BME280_humidity;BME280_pressure;Samples;Min_cycle;Max_cycle;Signal;HPM_P1;HPM_P2
2024/02/14 00:00:33;;;;;;;4.10;1.83;;;7.10;61.20;;;;;;5063392;28;20209;-83
2024/02/14 00:03:02;;;;;;;2.33;1.80;;;7.10;65.90;;;;;;5062323;28;20203;-82
2024/02/14 00:05:29;;;;;;;4.93;1.90;;;7.20;75.10;;;;;;5061844;28;20234;-82
2024/02/14 00:07:56;;;;;;;3.00;2.20;;;7.00;99.90;;;;;;5062553;28;20238;-81
2024/02/14 00:10:23;;;;;;;3.20;1.90;;;7.00;99.90;;;;;;5060563;28;20218;-81
2024/02/14 00:12:50;;;;;;;2.47;1.83;;;7.00;99.90;;;;;;5062607;28;20617;-83
2024/02/14 00:15:17;;;;;;;2.43;2.00;;;6.90;99.90;;;;;;5062408;28;20205;-81
2024/02/14 00:17:44;;;;;;;4.10;2.10;;;7.00;99.90;;;;;;5060021;28;20671;-81
2024/02/14 00:20:13;;;;;;;3.97;2.00;;;7.20;99.90;;;;;;5062143;28;20278;-81
2024/02/14 00:22:40;;;;;;;3.27;2.00;;;7.00;99.90;;;;;;5062549;28;20237;-81
2024/02/14 00:25:09;;;;;;;3.63;2.20;;;6.80;1.00;;;;;;5062198;28;20203;-83
2024/02/14 00:27:35;;;;;;;3.17;2.10;;;6.80;1.00;;;;;;5062543;28;20223;-82
2024/02/14 00:30:03;;;;;;;3.30;2.17;;;6.80;1.00;;;;;;5063006;28;20297;-83
2024/02/14 00:32:30;;;;;;;3.63;1.80;;;6.90;99.90;;;;;;5062237;28;20191;-82
2024/02/14 00:34:56;;;;;;;5.47;2.50;;;7.00;99.90;;;;;;5061131;28;20227;-82
2024/02/14 00:37:25;;;;;;;2.83;2.00;;;6.90;1.00;;;;;;5061849;28;20205;-80
2024/02/14 00:39:51;;;;;;;4.40;2.30;;;6.80;1.00;;;;;;5054651;28;20302;-83
2024/02/14 00:42:18;;;;;;;6.47;2.13;;;7.00;99.90;;;;;;5051901;28;20195;-82
2024/02/14 00:44:45;;;;;;;4.87;2.37;;;7.00;99.90;;;;;;5051548;28;20207;-82
2024/02/14 00:47:12;;;;;;;4.87;2.40;;;7.00;99.90;;;;;;5055388;28;20210;-82
2024/02/14 00:49:39;;;;;;;4.13;2.27;;;6.90;99.90;;;;;;5040214;28;20290;-85
2024/02/14 00:52:06;;;;;;;6.47;1.87;;;6.90;1.00;;;;;;5059248;28;20195;-82
2024/02/14 00:54:35;;;;;;;3.40;2.13;;;7.00;99.90;;;;;;5060740;28;20219;-83
2024/02/14 00:57:02;;;;;;;2.93;1.93;;;7.00;99.90;;;;;;5060420;28;20210;-83
2024/02/14 00:59:29;;;;;;;5.17;2.53;;;6.90;99.90;;;;;;5060366;28;20689;-81
2024/02/14 01:01:55;;;;;;;5.03;2.60;;;6.90;99.90;;;;;;5061174;28;20202;-84
2024/02/14 01:04:22;;;;;;;3.07;2.10;;;7.00;99.90;;;;;;5060695;28;20671;-81
2024/02/14 01:06:51;;;;;;;2.70;2.33;;;6.90;99.90;;;;;;5059880;28;20195;-82
2024/02/14 01:09:18;;;;;;;4.37;2.30;;;7.20;99.90;;;;;;5058747;28;20322;-82
2024/02/14 01:11:46;;;;;;;3.40;2.33;;;7.00;99.90;;;;;;5060085;28;20213;-82
2024/02/14 01:14:13;;;;;;;6.73;2.23;;;7.10;67.00;;;;;;5057590;28;20231;-81
2024/02/14 01:16:43;;;;;;;3.87;2.20;;;7.00;85.20;;;;;;5040315;28;20204;-84
2024/02/14 01:19:10;;;;;;;3.67;2.23;;;7.00;99.90;;;;;;5040804;28;20223;-83
2024/02/14 01:21:37;;;;;;;6.43;2.53;;;7.00;99.90;;;;;;5054965;28;20234;-81
2024/02/14 01:24:07;;;;;;;3.77;2.20;;;7.00;99.90;;;;;;5060113;28;20245;-81
2024/02/14 01:26:34;;;;;;;4.00;2.07;;;7.00;99.90;;;;;;5060742;28;20192;-84
2024/02/14 01:29:02;;;;;;;4.53;2.10;;;7.00;99.90;;;;;;5060789;28;20318;-83
2024/02/14 01:31:29;;;;;;;2.97;1.93;;;7.00;99.90;;;;;;5061334;28;20661;-82
2024/02/14 01:33:59;;;;;;;3.63;2.60;;;7.00;99.90;;;;;;5061442;28;20289;-83
2024/02/14 01:36:25;;;;;;;6.50;2.07;;;7.10;99.90;;;;;;5060210;28;20231;-83
2024/02/14 01:38:52;;;;;;;3.80;2.23;;;7.10;99.90;;;;;;5059692;28;20803;-81
2024/02/14 01:41:21;;;;;;;4.33;2.63;;;7.10;99.90;;;;;;5063958;28;20638;-82
2024/02/14 01:43:47;;;;;;;6.50;2.50;;;7.20;76.90;;;;;;5060030;28;20210;-83
2024/02/14 01:46:16;;;;;;;3.53;2.43;;;7.20;99.90;;;;;;5059616;28;20230;-83
2024/02/14 01:48:43;;;;;;;4.73;2.40;;;7.10;99.90;;;;;;5054621;28;20222;-81
2024/02/14 01:51:14;;;;;;;3.80;2.50;;;7.30;83.10;;;;;;5059725;28;20212;-83
2024/02/14 01:53:42;;;;;;;5.13;2.80;;;7.30;96.50;;;;;;5059548;28;20662;-82
2024/02/14 01:56:09;;;;;;;5.43;2.23;;;7.20;99.90;;;;;;5064574;28;20211;-81
2024/02/14 01:58:37;;;;;;;4.43;2.23;;;7.20;99.90;;;;;;5059528;28;20221;-83
2024/02/14 02:01:04;;;;;;;6.10;2.80;;;7.30;99.90;;;;;;5060704;28;20554;-81
2024/02/14 02:03:36;;;;;;;4.70;2.30;;;7.40;1.00;;;;;;5060216;28;20282;-83
2024/02/14 02:06:03;;;;;;;2.93;2.20;;;7.50;54.30;;;;;;5059902;28;20210;-81
2024/02/14 02:08:30;;;;;;;7.73;2.63;;;7.40;48.30;;;;;;5059717;28;20303;-82
2024/02/14 02:10:57;;;;;;;4.23;2.97;;;7.50;1.00;;;;;;5059198;28;20645;-81
2024/02/14 02:13:25;;;;;;;4.00;2.77;;;7.50;1.00;;;;;;5053420;28;20711;-82
2024/02/14 02:15:53;;;;;;;5.27;3.20;;;7.50;1.00;;;;;;5064856;28;20210;-83
2024/02/14 02:18:20;;;;;;;9.70;3.27;;;7.60;1.00;;;;;;5058683;28;20305;-81
2024/02/14 02:20:48;;;;;;;5.77;2.90;;;7.70;1.00;;;;;;5058337;28;20218;-82
2024/02/14 02:23:16;;;;;;;5.23;2.80;;;7.60;1.00;;;;;;5059421;28;20203;-83
2024/02/14 02:25:44;;;;;;;4.90;2.80;;;7.60;1.00;;;;;;5063320;28;20199;-82
2024/02/14 02:28:11;;;;;;;5.33;2.90;;;7.70;1.00;;;;;;5059214;28;20225;-83
2024/02/14 02:30:38;;;;;;;3.77;2.50;;;7.60;1.00;;;;;;5058948;28;20205;-83
2024/02/14 02:33:07;;;;;;;3.03;2.70;;;7.60;1.00;;;;;;5064972;28;20202;-82
2024/02/14 02:35:34;;;;;;;4.30;2.80;;;7.70;1.00;;;;;;5059313;28;20226;-81
2024/02/14 02:38:01;;;;;;;4.67;3.17;;;7.70;1.00;;;;;;5058652;28;20219;-81
2024/02/14 02:40:29;;;;;;;4.77;2.77;;;7.70;1.00;;;;;;5064238;28;20203;-83
2024/02/14 02:42:56;;;;;;;4.70;2.60;;;7.80;1.00;;;;;;5060321;28;20211;-83
2024/02/14 02:45:23;;;;;;;7.53;3.17;;;7.70;1.00;;;;;;5060851;28;20203;-82
2024/02/14 02:47:51;;;;;;;6.73;3.00;;;7.80;1.00;;;;;;5060270;28;20651;-83
2024/02/14 02:50:18;;;;;;;7.63;3.43;;;7.70;1.00;;;;;;5059335;28;20212;-85
2024/02/14 02:52:44;;;;;;;7.33;3.00;;;7.70;1.00;;;;;;5059586;28;20202;-81
2024/02/14 02:55:12;;;;;;;8.33;2.93;;;7.60;2.30;;;;;;5057456;28;20269;-79
2024/02/14 02:57:41;;;;;;;5.37;3.07;;;7.70;99.90;;;;;;5062673;28;20219;-82
2024/02/14 03:00:09;;;;;;;6.23;3.10;;;7.60;99.90;;;;;;5058455;28;20589;-81
2024/02/14 03:02:38;;;;;;;6.90;3.03;;;7.60;99.90;;;;;;5057933;28;20210;-82
2024/02/14 03:05:10;;;;;;;4.83;3.10;;;7.60;99.90;;;;;;5058402;28;20650;-81
2024/02/14 03:07:37;;;;;;;3.83;2.50;;;7.60;99.90;;;;;;5058045;28;20562;-80
2024/02/14 03:10:04;;;;;;;4.43;2.80;;;7.60;99.90;;;;;;5064422;28;20202;-80
2024/02/14 03:12:32;;;;;;;5.13;2.80;;;7.60;1.00;;;;;;5061567;28;20665;-82
2024/02/14 03:15:00;;;;;;;4.23;2.80;;;7.60;99.90;;;;;;5050934;28;20230;-81
2024/02/14 03:17:28;;;;;;;5.30;2.70;;;7.60;1.00;;;;;;5071756;28;20262;-82
2024/02/14 03:19:56;;;;;;;7.50;2.97;;;7.60;1.00;;;;;;5058248;28;20653;-82
2024/02/14 03:22:23;;;;;;;5.67;3.40;;;7.50;1.00;;;;;;5058004;28;20202;-82
2024/02/14 03:24:50;;;;;;;4.13;2.93;;;7.60;1.00;;;;;;5058035;28;20199;-82
2024/02/14 03:27:18;;;;;;;6.70;2.93;;;7.50;1.00;;;;;;5057945;28;20209;-83
2024/02/14 03:29:47;;;;;;;6.03;3.00;;;7.40;1.00;;;;;;5061307;28;20213;-82
2024/02/14 03:32:15;;;;;;;6.63;2.83;;;7.40;40.70;;;;;;5060425;28;20211;-80
2024/02/14 03:34:42;;;;;;;5.70;3.03;;;7.40;1.00;;;;;;5058236;28;20623;-80
2024/02/14 03:37:09;;;;;;;5.37;2.80;;;7.50;1.00;;;;;;5057209;28;20209;-82
2024/02/14 03:39:35;;;;;;;4.93;3.20;;;7.50;1.00;;;;;;5063924;28;20313;-82
2024/02/14 03:42:07;;;;;;;5.70;3.40;;;7.60;1.00;;;;;;5053558;28;20649;-81
2024/02/14 03:44:34;;;;;;;3.90;2.80;;;7.50;1.00;;;;;;5038342;28;20708;-80
2024/02/14 03:47:00;;;;;;;4.80;2.73;;;7.60;1.00;;;;;;5054182;28;20206;-83
2024/02/14 03:49:30;;;;;;;5.90;2.97;;;7.60;1.00;;;;;;5058314;28;20231;-81
2024/02/14 03:51:56;;;;;;;6.37;2.93;;;7.60;1.00;;;;;;5057804;28;20252;-81
2024/02/14 03:54:23;;;;;;;5.93;2.97;;;7.90;1.00;;;;;;5057808;28;20298;-82
2024/02/14 03:56:51;;;;;;;5.63;2.93;;;7.60;89.90;;;;;;5052275;28;20195;-82
2024/02/14 03:59:24;;;;;;;5.60;2.87;;;7.60;1.10;;;;;;5058201;28;20239;-80
2024/02/14 04:01:53;;;;;;;2.90;2.57;;;7.70;99.90;;;;;;5054088;28;20206;-81
2024/02/14 04:04:19;;;;;;;6.53;2.90;;;7.50;99.90;;;;;;5056418;28;20230;-80
2024/02/14 04:06:48;;;;;;;6.47;2.97;;;7.60;99.90;;;;;;5056888;28;20206;-82
2024/02/14 04:09:14;;;;;;;4.63;2.80;;;7.60;99.90;;;;;;5057551;28;20234;-83
2024/02/14 04:11:41;;;;;;;7.77;3.03;;;7.60;99.90;;;;;;5057417;28;20270;-82
2024/02/14 04:14:08;;;;;;;5.10;2.77;;;7.70;99.90;;;;;;5056540;28;20207;-80
2024/02/14 04:16:36;;;;;;;6.37;2.90;;;7.70;99.90;;;;;;5054139;28;20684;-83
2024/02/14 04:19:03;;;;;;;5.43;3.27;;;7.60;1.00;;;;;;5057094;28;20250;-83
2024/02/14 04:21:30;;;;;;;3.93;2.83;;;7.60;1.00;;;;;;5053685;28;20204;-81
2024/02/14 04:23:58;;;;;;;5.00;2.87;;;7.70;1.00;;;;;;5047457;28;20199;-79
2024/02/14 04:26:26;;;;;;;7.27;3.00;;;7.70;1.00;;;;;;5037532;28;20204;-82
2024/02/14 04:28:53;;;;;;;5.70;2.53;;;7.70;1.00;;;;;;5046710;28;20295;-81
2024/02/14 04:31:20;;;;;;;4.50;3.10;;;7.70;1.00;;;;;;5058286;28;20221;-81
2024/02/14 04:33:51;;;;;;;7.77;3.30;;;7.80;1.00;;;;;;5048498;28;20642;-79
2024/02/14 04:36:18;;;;;;;5.77;2.63;;;7.70;1.00;;;;;;5055800;28;20696;-82
2024/02/14 04:38:45;;;;;;;3.23;2.27;;;7.70;99.90;;;;;;5053610;28;20291;-81
2024/02/14 04:41:14;;;;;;;4.57;2.53;;;7.70;99.90;;;;;;5047611;28;20210;-83
2024/02/14 04:43:41;;;;;;;7.40;2.80;;;7.60;1.00;;;;;;5041463;28;21685;-82
2024/02/14 04:46:08;;;;;;;3.73;2.83;;;7.60;1.00;;;;;;5045155;28;20291;-82
2024/02/14 04:48:35;;;;;;;5.50;2.60;;;7.60;99.90;;;;;;5045283;28;20230;-82
2024/02/14 04:51:02;;;;;;;7.70;3.23;;;7.50;1.00;;;;;;5050861;28;20199;-83
2024/02/14 04:53:29;;;;;;;5.17;2.60;;;7.50;1.00;;;;;;5050565;28;20203;-82
2024/02/14 04:55:56;;;;;;;6.33;2.87;;;7.60;99.90;;;;;;5047051;28;20221;-82
2024/02/14 04:58:26;;;;;;;5.20;2.83;;;7.50;1.00;;;;;;5048084;28;20226;-83
2024/02/14 05:00:54;;;;;;;5.93;3.30;;;7.50;99.90;;;;;;5049587;28;20211;-83
2024/02/14 05:03:23;;;;;;;4.27;2.60;;;7.40;1.00;;;;;;5051172;28;20226;-83
2024/02/14 05:05:50;;;;;;;3.70;2.60;;;7.40;1.00;;;;;;5050951;28;20298;-83
2024/02/14 05:08:17;;;;;;;5.47;3.17;;;7.50;1.00;;;;;;5051062;28;20757;-81
2024/02/14 05:10:45;;;;;;;6.63;3.20;;;7.30;1.00;;;;;;5054064;28;20275;-81
2024/02/14 05:13:13;;;;;;;4.60;2.67;;;7.30;1.00;;;;;;5054888;28;20261;-81
2024/02/14 05:15:41;;;;;;;3.70;2.50;;;7.30;1.00;;;;;;5055584;28;20223;-82
2024/02/14 05:18:08;;;;;;;4.00;2.73;;;7.30;1.00;;;;;;5053163;28;20223;-81
2024/02/14 05:20:35;;;;;;;5.40;2.80;;;7.30;1.00;;;;;;5055914;28;20211;-84
2024/02/14 05:23:03;;;;;;;6.07;2.60;;;7.30;1.00;;;;;;5056083;28;20286;-82
2024/02/14 05:25:32;;;;;;;6.93;3.43;;;7.30;1.00;;;;;;5054529;28;20249;-81
2024/02/14 05:27:59;;;;;;;5.00;3.03;;;7.30;99.90;;;;;;5058284;28;20227;-80
2024/02/14 05:30:27;;;;;;;5.63;3.30;;;7.30;99.90;;;;;;5052125;28;20270;-85
2024/02/14 05:32:55;;;;;;;3.57;2.70;;;7.30;79.50;;;;;;5055015;28;20214;-82
2024/02/14 05:35:23;;;;;;;5.23;2.80;;;7.30;1.00;;;;;;5049445;28;20223;-83
2024/02/14 05:37:51;;;;;;;4.17;2.50;;;7.40;1.00;;;;;;5056182;28;20241;-84
2024/02/14 05:40:18;;;;;;;5.47;2.70;;;7.30;1.00;;;;;;5055125;28;20584;-82
2024/02/14 05:42:44;;;;;;;7.77;2.70;;;7.40;1.00;;;;;;5060370;28;20195;-82
2024/02/14 05:45:11;;;;;;;4.40;2.60;;;7.50;1.00;;;;;;5044586;28;20642;-83
2024/02/14 05:47:39;;;;;;;5.70;3.00;;;7.50;1.00;;;;;;5044737;28;20234;-83
2024/02/14 05:50:11;;;;;;;4.10;2.70;;;7.60;1.00;;;;;;5048494;28;20215;-83
2024/02/14 05:52:38;;;;;;;5.07;2.63;;;7.40;1.00;;;;;;5045789;28;20207;-83
2024/02/14 05:55:05;;;;;;;7.47;2.80;;;7.50;1.00;;;;;;5045227;28;20226;-83
2024/02/14 05:57:32;;;;;;;6.23;2.63;;;7.50;1.00;;;;;;5044562;28;20318;-83
2024/02/14 05:59:59;;;;;;;4.80;2.50;;;7.50;1.00;;;;;;5046711;28;20207;-82
2024/02/14 06:02:26;;;;;;;3.93;2.30;;;7.40;99.90;;;;;;5048086;28;20217;-81
2024/02/14 06:04:53;;;;;;;5.47;2.60;;;7.50;99.90;;;;;;5052820;28;20296;-83
2024/02/14 06:07:21;;;;;;;4.93;2.53;;;7.60;99.90;;;;;;5051845;28;20559;-82
2024/02/14 06:09:48;;;;;;;8.70;2.83;;;7.60;1.00;;;;;;5052260;28;20213;-84
2024/02/14 06:12:14;;;;;;;4.40;2.67;;;7.60;71.70;;;;;;5051045;28;20213;-81
2024/02/14 06:14:41;;;;;;;4.60;2.40;;;7.60;99.90;;;;;;5052998;28;20223;-82
2024/02/14 06:17:08;;;;;;;3.43;2.30;;;7.70;99.90;;;;;;5054951;28;20299;-82
2024/02/14 06:19:36;;;;;;;5.23;2.37;;;7.70;99.90;;;;;;5053826;28;20321;-83
2024/02/14 06:22:02;;;;;;;4.43;2.73;;;7.60;99.90;;;;;;5051791;28;20214;-83
2024/02/14 06:24:30;;;;;;;4.23;2.40;;;7.60;99.90;;;;;;5052580;28;20215;-85
2024/02/14 06:26:57;;;;;;;4.90;2.43;;;7.60;99.90;;;;;;5051975;28;20215;-84
2024/02/14 06:29:24;;;;;;;3.30;2.30;;;7.70;99.90;;;;;;5055567;28;20224;-84
2024/02/14 06:31:51;;;;;;;6.47;2.70;;;7.70;99.90;;;;;;5047346;28;20217;-84
2024/02/14 06:34:19;;;;;;;5.00;2.60;;;7.70;99.90;;;;;;5053102;28;20213;-84
2024/02/14 06:36:47;;;;;;;3.47;2.33;;;7.70;99.90;;;;;;5055296;28;20220;-83
2024/02/14 06:39:14;;;;;;;4.93;3.00;;;7.90;99.90;;;;;;5053101;28;20242;-82
2024/02/14 06:41:43;;;;;;;4.03;2.33;;;7.70;99.90;;;;;;5051312;28;20214;-82
2024/02/14 06:44:10;;;;;;;4.70;2.33;;;7.70;99.90;;;;;;5046867;28;20211;-85
2024/02/14 06:46:37;;;;;;;4.53;2.80;;;7.80;99.90;;;;;;5045967;28;20206;-82
2024/02/14 06:49:04;;;;;;;4.50;2.30;;;7.80;99.90;;;;;;5052332;28;20242;-83
2024/02/14 06:51:31;;;;;;;4.53;2.17;;;7.80;99.90;;;;;;5045377;28;20577;-84
2024/02/14 06:53:58;;;;;;;4.33;2.20;;;7.70;99.90;;;;;;5047244;28;20195;-83
2024/02/14 06:56:24;;;;;;;2.90;2.10;;;7.70;99.90;;;;;;5054442;28;20223;-85
2024/02/14 06:58:59;;;;;;;4.23;2.20;;;7.70;99.90;;;;;;5050110;28;20227;-83
2024/02/14 07:01:26;;;;;;;3.50;2.40;;;7.70;99.90;;;;;;5054597;28;20208;-83
2024/02/14 07:03:53;;;;;;;5.33;2.47;;;7.70;99.90;;;;;;5050649;28;20199;-83
2024/02/14 07:06:20;;;;;;;4.17;2.23;;;7.70;99.90;;;;;;5047405;28;20198;-83
2024/02/14 07:08:48;;;;;;;5.00;2.57;;;7.70;99.90;;;;;;5045167;28;20294;-81
2024/02/14 07:11:16;;;;;;;5.97;2.20;;;7.70;99.90;;;;;;5049534;28;20265;-82
2024/02/14 07:13:43;;;;;;;4.03;2.13;;;7.80;99.90;;;;;;5050174;28;20207;-82
2024/02/14 07:16:11;;;;;;;3.43;2.40;;;7.80;99.90;;;;;;5047499;28;20251;-86
2024/02/14 07:18:38;;;;;;;3.17;2.23;;;7.90;99.90;;;;;;5051557;28;20227;-84
2024/02/14 07:21:05;;;;;;;3.57;2.40;;;7.90;99.90;;;;;;5044757;28;20721;-84
2024/02/14 07:23:32;;;;;;;4.60;2.57;;;7.90;99.90;;;;;;5056165;28;20206;-84
2024/02/14 07:26:00;;;;;;;3.10;2.27;;;7.90;99.90;;;;;;5053076;28;20219;-82
2024/02/14 07:28:27;;;;;;;2.73;2.30;;;7.90;99.90;;;;;;5054847;28;20224;-82
2024/02/14 07:30:54;;;;;;;3.50;2.27;;;7.90;99.90;;;;;;5053346;28;20202;-83
2024/02/14 07:33:23;;;;;;;4.50;2.33;;;7.90;99.90;;;;;;5049591;28;20290;-83
2024/02/14 07:35:50;;;;;;;4.40;2.40;;;7.80;99.90;;;;;;5043507;28;20577;-83
2024/02/14 07:38:17;;;;;;;2.23;2.00;;;7.80;99.90;;;;;;5049597;28;20288;-84
2024/02/14 07:40:44;;;;;;;3.83;2.30;;;7.90;99.90;;;;;;5050331;28;20222;-82
2024/02/14 07:43:11;;;;;;;3.00;1.93;;;7.90;99.90;;;;;;5038432;28;20200;-84
2024/02/14 07:45:38;;;;;;;3.93;2.30;;;7.90;99.90;;;;;;5039201;28;20209;-84
2024/02/14 07:48:06;;;;;;;4.30;2.20;;;7.90;99.90;;;;;;5039412;28;20599;-83
2024/02/14 07:50:34;;;;;;;2.93;2.13;;;7.90;99.90;;;;;;5040582;28;20640;-83
2024/02/14 07:53:02;;;;;;;3.67;2.20;;;7.90;99.90;;;;;;5040847;28;20207;-84
2024/02/14 07:55:28;;;;;;;2.90;2.07;;;7.90;99.90;;;;;;5042959;28;20282;-82
2024/02/14 07:57:55;;;;;;;2.97;1.97;;;7.90;99.90;;;;;;5041520;28;20237;-84
2024/02/14 08:00:23;;;;;;;3.03;2.10;;;8.00;99.90;;;;;;5041954;28;20207;-83
2024/02/14 08:02:50;;;;;;;3.53;2.43;;;7.80;99.90;;;;;;5045145;28;20222;-83
2024/02/14 08:05:17;;;;;;;2.83;2.17;;;7.70;99.90;;;;;;5047097;28;20263;-84
2024/02/14 08:07:47;;;;;;;5.47;2.40;;;7.60;99.90;;;;;;5043217;28;20604;-83
2024/02/14 08:10:14;;;;;;;3.77;2.00;;;7.60;99.90;;;;;;5045540;28;20290;-85
2024/02/14 08:12:40;;;;;;;3.77;2.17;;;7.60;99.90;;;;;;5047348;28;20273;-84
2024/02/14 08:15:07;;;;;;;3.87;2.57;;;7.50;99.90;;;;;;5048272;28;20195;-82
2024/02/14 08:17:35;;;;;;;5.83;2.50;;;7.60;99.90;;;;;;5045966;28;20310;-83
2024/02/14 08:20:03;;;;;;;2.43;1.80;;;7.60;99.90;;;;;;5049501;28;20290;-83
2024/02/14 08:22:30;;;;;;;2.57;1.70;;;7.60;99.90;;;;;;5051054;28;20677;-82
2024/02/14 08:24:59;;;;;;;4.87;2.73;;;7.70;99.90;;;;;;5054596;28;20199;-82
2024/02/14 08:27:27;;;;;;;1.87;1.70;;;7.80;99.90;;;;;;5051767;28;20202;-81
2024/02/14 08:29:55;;;;;;;3.70;1.80;;;7.80;99.90;;;;;;5060438;28;20445;-82
2024/02/14 08:32:22;;;;;;;3.23;1.80;;;7.80;99.90;;;;;;5054577;28;20210;-82
2024/02/14 08:34:50;;;;;;;2.73;1.90;;;7.80;99.90;;;;;;5050724;28;20195;-82
2024/02/14 08:37:16;;;;;;;2.00;1.80;;;7.80;99.90;;;;;;5048389;28;20242;-84
2024/02/14 08:39:43;;;;;;;2.33;1.67;;;7.80;99.90;;;;;;5054843;28;20650;-84
2024/02/14 08:42:11;;;;;;;3.43;2.07;;;7.90;99.90;;;;;;5062484;28;20675;-82
2024/02/14 08:44:38;;;;;;;2.50;1.90;;;7.90;99.90;;;;;;5048412;28;20290;-82
2024/02/14 08:47:05;;;;;;;2.87;2.00;;;7.90;99.90;;;;;;5042609;28;20203;-83
2024/02/14 08:49:32;;;;;;;2.80;2.17;;;7.90;99.90;;;;;;5047060;28;20226;-82
2024/02/14 08:51:59;;;;;;;5.43;2.23;;;7.80;99.90;;;;;;5039144;28;20203;-83
2024/02/14 08:54:28;;;;;;;2.97;2.00;;;7.90;99.90;;;;;;5040132;28;20210;-82
2024/02/14 08:56:58;;;;;;;1.83;1.73;;;7.80;99.90;;;;;;5047231;28;20280;-84
2024/02/14 08:59:26;;;;;;;2.80;2.03;;;7.80;99.90;;;;;;5051213;28;20226;-83
2024/02/14 09:01:53;;;;;;;2.23;2.00;;;7.80;99.90;;;;;;5049068;28;20295;-83
2024/02/14 09:04:20;;;;;;;3.63;2.80;;;7.80;99.90;;;;;;5043274;28;20262;-83
2024/02/14 09:06:46;;;;;;;2.90;2.50;;;7.90;99.90;;;;;;5049963;28;20199;-84
2024/02/14 09:09:14;;;;;;;3.20;2.33;;;8.00;99.90;;;;;;5047228;28;20233;-82
2024/02/14 09:11:40;;;;;;;2.97;2.50;;;8.00;99.90;;;;;;5048013;28;20249;-84
2024/02/14 09:14:07;;;;;;;4.30;2.57;;;8.00;99.90;;;;;;5049368;28;20206;-82
2024/02/14 09:16:35;;;;;;;2.93;2.53;;;8.00;99.90;;;;;;5049782;28;20220;-82
2024/02/14 09:19:03;;;;;;;4.43;3.10;;;8.10;99.90;;;;;;5050675;28;20221;-84
2024/02/14 09:21:30;;;;;;;4.17;2.90;;;8.10;99.90;;;;;;5049314;28;20277;-82
2024/02/14 09:23:57;;;;;;;3.93;3.20;;;8.20;99.90;;;;;;5052498;28;20290;-85
2024/02/14 09:26:24;;;;;;;5.23;3.60;;;8.20;99.90;;;;;;5049797;28;20199;-82
2024/02/14 09:28:51;;;;;;;5.87;3.90;;;8.30;99.90;;;;;;5052325;28;20257;-81
2024/02/14 09:31:21;;;;;;;7.30;4.03;;;8.50;99.90;;;;;;5050582;28;20717;-84
2024/02/14 09:33:49;;;;;;;4.97;3.90;;;8.50;99.90;;;;;;5053286;28;20702;-83
2024/02/14 09:36:16;;;;;;;5.33;3.80;;;8.60;99.90;;;;;;5061767;28;20222;-83
2024/02/14 09:38:44;;;;;;;5.17;3.40;;;8.60;99.90;;;;;;5061705;28;20268;-82
2024/02/14 09:41:17;;;;;;;4.93;4.00;;;8.60;99.90;;;;;;5056368;28;20210;-84
2024/02/14 09:43:45;;;;;;;4.37;3.50;;;8.70;99.90;;;;;;5054506;28;20210;-84
2024/02/14 09:46:14;;;;;;;5.90;4.27;;;9.10;99.90;;;;;;5046340;28;20202;-84
2024/02/14 09:48:44;;;;;;;5.10;4.20;;;8.90;99.90;;;;;;5047401;28;20227;-83
2024/02/14 09:51:12;;;;;;;8.57;4.43;;;9.00;99.90;;;;;;5044968;28;20226;-82
2024/02/14 09:53:40;;;;;;;4.47;3.47;;;9.00;99.90;;;;;;5042175;28;20278;-84
2024/02/14 09:56:09;;;;;;;5.00;3.53;;;9.20;99.90;;;;;;5039713;28;20242;-84
2024/02/14 09:58:37;;;;;;;5.73;3.27;;;9.10;99.90;;;;;;5042481;28;20701;-84
2024/02/14 10:01:06;;;;;;;4.93;3.60;;;9.10;99.90;;;;;;5040295;28;20199;-83
2024/02/14 10:03:35;;;;;;;5.10;3.50;;;9.10;99.90;;;;;;5046704;28;20211;-82
2024/02/14 10:06:02;;;;;;;3.53;3.20;;;9.20;99.90;;;;;;5041957;28;20211;-83
2024/02/14 10:08:31;;;;;;;3.60;3.27;;;9.20;99.90;;;;;;5047828;28;20244;-82
2024/02/14 10:10:58;;;;;;;5.50;3.30;;;9.30;99.90;;;;;;5045879;28;20198;-82
2024/02/14 10:13:28;;;;;;;5.57;3.90;;;9.40;99.90;;;;;;5047696;28;20211;-83
2024/02/14 10:15:55;;;;;;;16.10;4.37;;;9.50;99.90;;;;;;5046591;28;20639;-83
2024/02/14 10:18:22;;;;;;;5.17;3.73;;;9.50;99.90;;;;;;5049755;28;20219;-83
2024/02/14 10:20:56;;;;;;;5.07;3.90;;;9.50;99.90;;;;;;5044683;28;20203;-83
2024/02/14 10:23:23;;;;;;;5.80;3.50;;;9.60;99.90;;;;;;5046630;28;20298;-83
2024/02/14 10:25:53;;;;;;;5.70;3.67;;;9.70;99.90;;;;;;5056630;28;20210;-84
2024/02/14 10:28:22;;;;;;;3.43;3.13;;;9.60;99.90;;;;;;5050829;28;20251;-82
2024/02/14 10:30:50;;;;;;;5.43;3.90;;;9.60;99.90;;;;;;5046869;28;20576;-83
2024/02/14 10:33:17;;;;;;;5.20;4.07;;;9.50;99.90;;;;;;5051224;28;20206;-84
2024/02/14 10:35:44;;;;;;;4.23;3.67;;;9.60;99.90;;;;;;5054807;28;20211;-83
2024/02/14 10:38:12;;;;;;;5.07;4.07;;;9.60;99.90;;;;;;5052410;28;20233;-83
2024/02/14 10:40:39;;;;;;;5.27;4.00;;;9.70;99.90;;;;;;5052257;28;20297;-84
2024/02/14 10:43:09;;;;;;;7.00;3.87;;;9.60;99.90;;;;;;5055417;28;20633;-83
2024/02/14 10:45:36;;;;;;;6.97;3.70;;;9.70;99.90;;;;;;5044683;28;20657;-84
2024/02/14 10:48:05;;;;;;;4.73;3.80;;;9.70;99.90;;;;;;5037228;28;20215;-84
2024/02/14 10:50:34;;;;;;;6.07;3.83;;;9.70;99.90;;;;;;5038437;28;20219;-84
2024/02/14 10:53:06;;;;;;;6.73;4.47;;;9.80;99.90;;;;;;5037943;28;20207;-84
2024/02/14 10:55:34;;;;;;;5.60;3.90;;;9.90;99.90;;;;;;5042814;28;20203;-83
2024/02/14 10:58:03;;;;;;;5.50;3.77;;;9.90;99.90;;;;;;5038590;28;20231;-84
2024/02/14 11:00:32;;;;;;;4.50;3.60;;;10.00;99.90;;;;;;5039640;28;20211;-84
2024/02/14 11:03:00;;;;;;;6.90;4.40;;;10.00;99.90;;;;;;5039597;28;20290;-84
2024/02/14 11:05:27;;;;;;;5.03;3.57;;;10.10;99.90;;;;;;5040693;28;20195;-84
2024/02/14 11:07:54;;;;;;;3.80;3.43;;;10.10;99.90;;;;;;5045869;28;20696;-84
2024/02/14 11:10:22;;;;;;;4.37;3.20;;;10.10;99.90;;;;;;5045022;28;20194;-84
2024/02/14 11:12:50;;;;;;;4.60;3.47;;;10.10;99.90;;;;;;5043997;28;20195;-84
2024/02/14 11:15:20;;;;;;;5.23;3.33;;;10.10;99.90;;;;;;5042522;28;20872;-83
2024/02/14 11:17:51;;;;;;;4.60;3.67;;;10.10;99.90;;;;;;5048130;28;20234;-85
2024/02/14 11:20:19;;;;;;;4.60;3.63;;;10.20;99.90;;;;;;5047796;28;20215;-83
2024/02/14 11:22:56;;;;;;;4.33;3.50;;;10.20;99.90;;;;;;5047866;28;20205;-83
2024/02/14 11:25:29;;;;;;;3.67;3.37;;;10.20;99.90;;;;;;5046017;28;20218;-84
2024/02/14 11:27:56;;;;;;;4.63;3.53;;;10.20;99.90;;;;;;5046530;28;20219;-83
2024/02/14 11:30:34;;;;;;;3.70;3.40;;;10.20;99.90;;;;;;5049483;28;20267;-82
2024/02/14 11:33:20;;;;;;;8.00;3.60;;;10.20;99.90;;;;;;5048749;28;20237;-85
2024/02/14 11:35:49;;;;;;;4.73;3.50;;;10.20;99.90;;;;;;5052488;28;20202;-83
2024/02/14 11:38:16;;;;;;;4.80;3.67;;;10.20;99.90;;;;;;5051869;28;20226;-85
2024/02/14 11:40:43;;;;;;;7.27;3.30;;;10.30;99.90;;;;;;5053033;28;20222;-83
2024/02/14 11:43:14;;;;;;;4.43;3.60;;;10.30;99.90;;;;;;5053677;28;20290;-84
2024/02/14 11:45:42;;;;;;;5.33;3.30;;;10.50;99.90;;;;;;5052084;28;20211;-83
2024/02/14 11:48:10;;;;;;;5.03;3.30;;;10.50;99.90;;;;;;5042552;28;20227;-84
2024/02/14 11:50:40;;;;;;;4.23;3.30;;;10.60;99.90;;;;;;5037780;28;20210;-83
2024/02/14 11:53:08;;;;;;;4.87;3.90;;;10.60;99.90;;;;;;5038489;28;20210;-85
2024/02/14 11:55:37;;;;;;;4.83;3.20;;;10.60;99.90;;;;;;5048676;28;20202;-84
2024/02/14 11:58:04;;;;;;;3.77;3.10;;;10.50;99.90;;;;;;5041992;28;20369;-85
2024/02/14 12:00:31;;;;;;;4.13;3.20;;;10.50;99.90;;;;;;5053632;28;20583;-84
2024/02/14 12:02:58;;;;;;;5.20;3.07;;;10.50;99.90;;;;;;5043664;28;20290;-83
2024/02/14 12:05:25;;;;;;;3.43;3.00;;;10.50;99.90;;;;;;5050162;28;20199;-85
2024/02/14 12:07:53;;;;;;;3.30;3.00;;;10.50;99.90;;;;;;5046074;28;20230;-85
2024/02/14 12:10:21;;;;;;;3.57;2.90;;;10.70;99.90;;;;;;5048509;28;20196;-84
2024/02/14 12:12:48;;;;;;;4.03;3.63;;;10.50;99.90;;;;;;5048335;28;20215;-84
2024/02/14 12:15:15;;;;;;;3.83;2.83;;;10.50;99.90;;;;;;5047299;28;20294;-84
2024/02/14 12:17:43;;;;;;;3.60;3.00;;;10.50;99.90;;;;;;5050902;28;20223;-83
2024/02/14 12:20:11;;;;;;;3.30;3.00;;;10.50;99.90;;;;;;5049283;28;20219;-84
2024/02/14 12:22:38;;;;;;;3.37;3.07;;;10.50;99.90;;;;;;5050929;28;20705;-83
2024/02/14 12:25:07;;;;;;;3.00;2.70;;;10.50;99.90;;;;;;5052155;28;20194;-84
2024/02/14 12:27:34;;;;;;;4.87;3.30;;;10.50;99.90;;;;;;5051629;28;20204;-84
2024/02/14 12:30:04;;;;;;;3.60;3.30;;;10.50;99.90;;;;;;5055872;28;20203;-84
2024/02/14 12:32:30;;;;;;;3.87;3.30;;;10.60;99.90;;;;;;5053431;28;20775;-82
2024/02/14 12:34:57;;;;;;;4.43;3.73;;;10.60;99.90;;;;;;5058417;28;20680;-84
2024/02/14 12:37:24;;;;;;;5.97;4.40;;;10.60;99.90;;;;;;5053399;28;20218;-85
2024/02/14 12:39:51;;;;;;;3.87;3.53;;;10.60;99.90;;;;;;5057400;28;20293;-83
2024/02/14 12:42:24;;;;;;;5.97;3.43;;;10.90;99.90;;;;;;5057780;28;20211;-84
2024/02/14 12:44:52;;;;;;;4.90;3.50;;;10.60;99.90;;;;;;5055196;28;20207;-85
2024/02/14 12:47:21;;;;;;;5.50;3.60;;;10.60;99.90;;;;;;5054546;28;20630;-85
2024/02/14 12:49:48;;;;;;;3.70;3.40;;;10.70;99.90;;;;;;5055045;28;20211;-84
2024/02/14 12:52:15;;;;;;;5.07;3.83;;;10.70;99.90;;;;;;5058516;28;20199;-84
2024/02/14 12:54:42;;;;;;;3.80;3.43;;;10.80;99.90;;;;;;5058193;28;20215;-84
2024/02/14 12:57:09;;;;;;;4.20;3.63;;;10.70;99.90;;;;;;5055320;28;20219;-84
2024/02/14 12:59:37;;;;;;;4.60;4.07;;;10.70;99.90;;;;;;5042905;28;20223;-85